Time;durP1;ratioP1;P1;durP2;ratioP2;P2;SDS_P1;SDS_P2;PMS_P1;PMS_P2;Temp;Humidity;BMP_temperature;BMP_pressure;BME280_temperature;BME280_humidity;BME280_pressure;Samples;Min_cycle;Max_cycle;Signal;HPM_P1;HPM_P2
2021/08/03 11:04:00;;;;;;;2.05;1.52;;;;;;;;;;4899978;23;1481078;-72
2021/08/03 11:06:25;;;;;;;4.68;2.47;;;;;;;;;;4924301;29;20051;-74
2021/08/03 11:08:54;;;;;;;2.60;1.13;;;;;;;;;;4920768;29;20024;-74
2021/08/03 11:11:29;;;;;;;2.22;1.40;;;;;;;;;;4926046;29;20346;-74
2021/08/03 11:14:06;;;;;;;2.13;1.10;;;;;;;;;;4927124;29;20118;-75
2021/08/03 11:16:32;;;;;;;4.32;1.27;;;;;;;;;;4928435;29;20333;-73
2021/08/03 11:19:02;;;;;;;2.58;1.08;;;;;;;;;;4926066;29;20039;-74
2021/08/03 11:21:50;;;;;;;1.77;1.40;;;;;;;;;;4927310;29;20037;-73
2021/08/03 11:24:30;;;;;;;2.40;1.65;;;;;;;;;;4930456;29;20173;-73
2021/08/03 11:26:57;;;;;;;1.92;1.25;;;;;;;;;;4929695;29;20039;-73
2021/08/03 11:29:33;;;;;;;1.30;1.20;;;;;;;;;;4928373;29;20107;-74
2021/08/03 11:32:04;;;;;;;2.67;1.30;;;;;;;;;;4925258;29;20039;-73
2021/08/03 11:34:34;;;;;;;2.92;1.40;;;;;;;;;;4929151;29;20430;-73
2021/08/03 11:37:13;;;;;;;3.33;1.00;;;;;;;;;;4928877;29;20403;-73
2021/08/03 11:39:43;;;;;;;2.17;1.70;;;;;;;;;;4936196;29;20507;-73
2021/08/03 11:42:11;;;;;;;3.25;1.38;;;;;;;;;;4928813;29;20451;-73
2021/08/03 11:44:38;;;;;;;5.57;1.70;;;;;;;;;;4927734;29;20490;-74
2021/08/03 11:47:09;;;;;;;1.83;1.33;;;;;;;;;;4927603;29;20075;-74
2021/08/03 11:49:36;;;;;;;1.70;1.60;;;;;;;;;;4928848;29;20047;-74
2021/08/03 11:52:19;;;;;;;6.47;1.65;;;;;;;;;;4927448;29;20051;-73
2021/08/03 11:54:48;;;;;;;1.45;1.35;;;;;;;;;;4927434;29;20399;-73
2021/08/03 11:57:23;;;;;;;1.65;0.90;;;;;;;;;;4928681;29;20047;-75
2021/08/03 12:00:00;;;;;;;2.65;1.38;;;;;;;;;;4928979;29;20392;-73
2021/08/03 12:02:26;;;;;;;2.17;1.73;;;;;;;;;;4929450;29;20031;-73
2021/08/03 12:05:10;;;;;;;1.40;1.13;;;;;;;;;;4937139;29;20043;-71
2021/08/03 12:07:37;;;;;;;0.88;0.85;;;;;;;;;;4907897;29;20075;-74
2021/08/03 12:10:04;;;;;;;3.08;1.23;;;;;;;;;;4933578;28;20115;-74
2021/08/03 12:12:29;;;;;;;3.10;1.20;;;;;;;;;;4940567;29;20039;-74
2021/08/03 12:15:07;;;;;;;1.88;1.50;;;;;;;;;;4941406;29;20089;-74
2021/08/03 12:17:33;;;;;;;1.75;1.23;;;;;;;;;;4937708;29;20028;-73
2021/08/03 12:20:05;;;;;;;4.38;1.80;;;;;;;;;;4918457;29;20038;-73
2021/08/03 12:22:32;;;;;;;3.35;1.35;;;;;;;;;;4903837;29;20039;-74
2021/08/03 12:25:03;;;;;;;1.10;0.95;;;;;;;;;;4919911;29;20033;-72
2021/08/03 12:27:41;;;;;;;1.50;1.40;;;;;;;;;;4918418;29;20498;-75
2021/08/03 12:30:27;;;;;;;5.75;3.22;;;;;;;;;;4939143;29;20028;-75
2021/08/03 12:32:53;;;;;;;3.30;1.40;;;;;;;;;;4936651;29;20031;-73
2021/08/03 12:35:20;;;;;;;5.13;1.48;;;;;;;;;;4922671;29;21216;-73
2021/08/03 12:37:45;;;;;;;1.77;0.95;;;;;;;;;;4920701;29;20888;-75
2021/08/03 12:40:32;;;;;;;1.80;0.90;;;;;;;;;;4939860;29;20045;-74
2021/08/03 12:42:59;;;;;;;2.97;1.20;;;;;;;;;;4920664;29;20550;-73
2021/08/03 12:45:26;;;;;;;1.80;1.42;;;;;;;;;;4936234;29;20043;-74
2021/08/03 12:48:01;;;;;;;12.30;2.30;;;;;;;;;;4921520;29;20042;-73
2021/08/03 12:50:29;;;;;;;6.10;2.08;;;;;;;;;;4939561;29;20023;-76
2021/08/03 12:52:59;;;;;;;3.00;1.08;;;;;;;;;;4938175;29;20027;-74
2021/08/03 12:55:31;;;;;;;5.00;1.25;;;;;;;;;;4914251;29;20031;-72
2021/08/03 12:57:58;;;;;;;1.67;1.30;;;;;;;;;;4925632;29;20051;-74
2021/08/03 13:00:33;;;;;;;1.08;0.98;;;;;;;;;;4927385;29;20130;-74
2021/08/03 13:03:02;;;;;;;20.30;2.03;;;;;;;;;;4922467;29;20035;-74
2021/08/03 13:05:29;;;;;;;3.88;1.60;;;;;;;;;;4917910;29;20048;-73
2021/08/03 13:07:56;;;;;;;4.45;1.42;;;;;;;;;;4921445;29;20091;-73
2021/08/03 13:10:21;;;;;;;2.00;1.50;;;;;;;;;;4920568;29;20036;-73
2021/08/03 13:12:47;;;;;;;4.68;1.58;;;;;;;;;;4920212;29;20050;-74
2021/08/03 13:15:14;;;;;;;3.08;1.55;;;;;;;;;;4919187;29;20093;-74
2021/08/03 13:17:40;;;;;;;2.30;1.40;;;;;;;;;;4922560;29;20027;-74
2021/08/03 13:20:07;;;;;;;2.78;1.63;;;;;;;;;;4919710;29;20452;-73
2021/08/03 13:22:34;;;;;;;2.72;1.17;;;;;;;;;;4913416;29;20056;-72
2021/08/03 13:25:00;;;;;;;3.17;1.42;;;;;;;;;;4912550;29;20020;-74
2021/08/03 13:27:26;;;;;;;2.08;1.65;;;;;;;;;;4913840;29;20150;-73
2021/08/03 13:29:51;;;;;;;1.23;1.13;;;;;;;;;;4919341;29;20031;-74
2021/08/03 13:32:17;;;;;;;2.80;1.20;;;;;;;;;;4920322;29;20036;-74
2021/08/03 13:34:43;;;;;;;2.33;1.52;;;;;;;;;;4916906;29;20043;-74
2021/08/03 13:37:08;;;;;;;3.28;1.27;;;;;;;;;;4917192;29;20063;-73
2021/08/03 13:39:34;;;;;;;2.90;1.38;;;;;;;;;;4919684;29;20027;-74
2021/08/03 13:41:59;;;;;;;2.92;1.27;;;;;;;;;;4917477;29;20071;-74
2021/08/03 13:44:25;;;;;;;1.95;1.50;;;;;;;;;;4920602;29;20098;-74
2021/08/03 13:46:50;;;;;;;2.22;1.27;;;;;;;;;;4919561;29;21290;-73
2021/08/03 13:49:16;;;;;;;24.20;3.30;;;;;;;;;;4921377;29;20124;-74
2021/08/03 13:51:41;;;;;;;4.57;2.13;;;;;;;;;;4924224;29;20495;-75
2021/08/03 13:54:07;;;;;;;3.90;1.80;;;;;;;;;;4914025;29;20064;-73
2021/08/03 13:56:33;;;;;;;4.57;1.60;;;;;;;;;;4919361;29;20054;-74
2021/08/03 13:59:02;;;;;;;4.93;1.65;;;;;;;;;;4931303;29;20037;-74
2021/08/03 14:01:27;;;;;;;3.67;1.23;;;;;;;;;;4907551;29;20028;-74
2021/08/03 14:03:53;;;;;;;2.40;1.02;;;;;;;;;;4912506;29;20102;-73
2021/08/03 14:06:20;;;;;;;4.30;1.52;;;;;;;;;;4917057;29;20074;-75
2021/08/03 14:08:46;;;;;;;2.05;1.13;;;;;;;;;;4915884;29;20050;-72
2021/08/03 14:11:11;;;;;;;6.30;1.20;;;;;;;;;;4913786;29;20020;-74
2021/08/03 14:13:37;;;;;;;2.25;1.38;;;;;;;;;;4941789;29;20415;-74
2021/08/03 14:16:06;;;;;;;2.97;1.98;;;;;;;;;;4938070;29;20044;-73
2021/08/03 14:18:31;;;;;;;3.45;1.00;;;;;;;;;;4932443;29;20031;-74
2021/08/03 14:20:57;;;;;;;2.95;1.50;;;;;;;;;;4915850;29;20439;-73
2021/08/03 14:23:23;;;;;;;3.08;1.52;;;;;;;;;;4931622;29;20437;-73
2021/08/03 14:25:48;;;;;;;1.95;1.40;;;;;;;;;;4939395;29;20067;-76
2021/08/03 14:28:14;;;;;;;3.53;1.25;;;;;;;;;;4922528;29;20035;-73
2021/08/03 14:30:39;;;;;;;6.65;1.33;;;;;;;;;;4932591;29;20507;-72
2021/08/03 14:33:06;;;;;;;1.77;1.20;;;;;;;;;;4931303;29;20046;-74
2021/08/03 14:35:32;;;;;;;9.05;1.88;;;;;;;;;;4923381;29;20107;-73
2021/08/03 14:37:58;;;;;;;1.48;1.20;;;;;;;;;;4912710;29;20054;-72
2021/08/03 14:40:24;;;;;;;12.18;2.13;;;;;;;;;;4939755;29;20122;-74
2021/08/03 14:42:49;;;;;;;1.80;1.20;;;;;;;;;;4945198;29;20391;-73
2021/08/03 14:45:15;;;;;;;2.33;1.42;;;;;;;;;;4914242;29;20392;-73
2021/08/03 14:47:41;;;;;;;5.35;1.42;;;;;;;;;;4937528;29;20122;-74
2021/08/03 14:50:08;;;;;;;2.03;1.10;;;;;;;;;;4938305;29;20028;-72
2021/08/03 14:52:33;;;;;;;1.98;1.27;;;;;;;;;;4918865;29;20035;-72
2021/08/03 14:55:00;;;;;;;31.00;3.38;;;;;;;;;;4913491;29;20032;-74
2021/08/03 14:57:26;;;;;;;4.72;1.52;;;;;;;;;;4942618;29;20308;-74
2021/08/03 14:59:52;;;;;;;22.70;2.85;;;;;;;;;;4929393;29;20091;-73
2021/08/03 15:02:18;;;;;;;5.57;1.58;;;;;;;;;;4936357;28;20031;-73
2021/08/03 15:04:43;;;;;;;6.88;1.50;;;;;;;;;;4946399;29;20689;-74
2021/08/03 15:07:09;;;;;;;13.18;1.83;;;;;;;;;;4931410;29;20479;-74
2021/08/03 15:09:34;;;;;;;10.90;3.30;;;;;;;;;;4950091;29;20058;-73
2021/08/03 15:12:00;;;;;;;4.13;1.33;;;;;;;;;;4930441;29;20063;-74
2021/08/03 15:14:25;;;;;;;14.57;1.88;;;;;;;;;;4930913;29;20423;-73
2021/08/03 15:16:51;;;;;;;9.15;1.35;;;;;;;;;;4931200;29;20460;-73
2021/08/03 15:19:17;;;;;;;8.43;2.55;;;;;;;;;;4931366;29;20399;-74
2021/08/03 15:21:43;;;;;;;6.38;2.28;;;;;;;;;;4931199;29;20134;-74
2021/08/03 15:24:10;;;;;;;4.10;1.50;;;;;;;;;;4914147;29;20030;-74
2021/08/03 15:26:36;;;;;;;11.68;1.70;;;;;;;;;;4941383;29;20129;-73
2021/08/03 15:29:03;;;;;;;5.68;1.60;;;;;;;;;;4950357;29;20027;-74
2021/08/03 15:31:28;;;;;;;2.67;1.48;;;;;;;;;;4945573;29;20028;-73
2021/08/03 15:33:54;;;;;;;1.42;1.33;;;;;;;;;;4912266;29;20038;-74
2021/08/03 15:36:19;;;;;;;3.33;1.45;;;;;;;;;;4913992;29;20063;-74
2021/08/03 15:38:45;;;;;;;4.82;1.40;;;;;;;;;;4931094;29;20039;-73
2021/08/03 15:41:11;;;;;;;5.75;1.65;;;;;;;;;;4935972;29;20114;-73
2021/08/03 15:43:37;;;;;;;5.80;1.67;;;;;;;;;;4942110;29;20151;-74
2021/08/03 15:46:05;;;;;;;2.72;1.70;;;;;;;;;;4942555;28;20087;-73
2021/08/03 15:48:31;;;;;;;1.35;1.00;;;;;;;;;;4903802;29;20131;-74
2021/08/03 15:50:56;;;;;;;2.30;1.30;;;;;;;;;;4898663;29;20068;-74
2021/08/03 15:53:23;;;;;;;6.28;1.65;;;;;;;;;;4913758;29;20082;-74
2021/08/03 15:55:49;;;;;;;20.38;2.22;;;;;;;;;;4915458;29;20054;-73
2021/08/03 15:58:15;;;;;;;2.33;1.13;;;;;;;;;;4915767;29;20024;-73
2021/08/03 16:00:40;;;;;;;6.75;1.63;;;;;;;;;;4898482;29;20020;-73
2021/08/03 16:03:06;;;;;;;3.80;1.77;;;;;;;;;;4915776;29;20428;-73
2021/08/03 16:05:31;;;;;;;3.13;1.70;;;;;;;;;;4914135;29;20087;-74
2021/08/03 16:07:57;;;;;;;2.35;1.33;;;;;;;;;;4915458;29;20043;-74
2021/08/03 16:10:23;;;;;;;5.05;1.42;;;;;;;;;;4915866;29;20035;-74
2021/08/03 16:12:48;;;;;;;2.28;1.60;;;;;;;;;;4915535;29;20391;-76
2021/08/03 16:15:14;;;;;;;4.05;1.98;;;;;;;;;;4914201;29;20043;-74
2021/08/03 16:17:45;;;;;;;1.50;1.23;;;;;;;;;;4916059;29;20107;-74
2021/08/03 16:20:11;;;;;;;27.38;5.15;;;;;;;;;;4898379;29;20107;-74
2021/08/03 16:22:38;;;;;;;4.80;2.80;;;;;;;;;;4914538;29;20036;-74
2021/08/03 16:25:04;;;;;;;5.40;2.22;;;;;;;;;;4915466;29;20031;-75
2021/08/03 16:27:30;;;;;;;1.73;1.55;;;;;;;;;;4914466;29;20039;-74
2021/08/03 16:29:55;;;;;;;4.53;1.98;;;;;;;;;;4914338;29;20035;-75
2021/08/03 16:32:24;;;;;;;8.75;2.15;;;;;;;;;;4915836;29;20546;-74
2021/08/03 16:34:54;;;;;;;5.03;2.35;;;;;;;;;;4915308;29;20384;-75
2021/08/03 16:37:21;;;;;;;3.60;1.83;;;;;;;;;;4915573;29;20056;-74
2021/08/03 16:39:48;;;;;;;11.30;4.80;;;;;;;;;;4915284;29;20043;-75
2021/08/03 16:42:15;;;;;;;5.00;2.25;;;;;;;;;;4915475;29;20103;-74
2021/08/03 16:44:41;;;;;;;2.13;1.88;;;;;;;;;;4914310;29;20031;-74
2021/08/03 16:47:07;;;;;;;4.57;2.05;;;;;;;;;;4914263;29;20031;-73
2021/08/03 16:49:34;;;;;;;3.30;1.73;;;;;;;;;;4914036;29;20404;-74
2021/08/03 16:51:59;;;;;;;2.22;1.40;;;;;;;;;;4915199;29;20035;-73
2021/08/03 16:54:28;;;;;;;5.50;1.83;;;;;;;;;;4915835;29;20028;-73
2021/08/03 16:56:53;;;;;;;5.03;2.33;;;;;;;;;;4914827;29;20466;-74
2021/08/03 16:59:20;;;;;;;8.40;3.88;;;;;;;;;;4914092;29;20156;-73
2021/08/03 17:01:48;;;;;;;10.23;3.85;;;;;;;;;;4897819;29;20385;-74
2021/08/03 17:04:23;;;;;;;4.78;2.30;;;;;;;;;;4915506;29;20048;-74
2021/08/03 17:07:15;;;;;;;8.90;7.05;;;;;;;;;;4913980;29;20063;-74
2021/08/03 17:09:59;;;;;;;5.82;2.80;;;;;;;;;;4914427;29;20036;-73
2021/08/03 17:12:36;;;;;;;7.70;2.40;;;;;;;;;;4913895;29;20032;-73
2021/08/03 17:15:02;;;;;;;4.72;1.90;;;;;;;;;;4915121;29;20468;-74
2021/08/03 17:17:51;;;;;;;5.45;4.10;;;;;;;;;;4897868;29;20052;-76
2021/08/03 17:20:18;;;;;;;5.97;2.15;;;;;;;;;;4915663;29;20024;-74
2021/08/03 17:22:50;;;;;;;3.97;2.00;;;;;;;;;;4914041;29;20032;-77
2021/08/03 17:25:16;;;;;;;2.42;1.80;;;;;;;;;;4913378;29;20036;-74
2021/08/03 17:27:45;;;;;;;5.22;2.05;;;;;;;;;;4913630;29;20032;-74
2021/08/03 17:30:12;;;;;;;6.15;2.70;;;;;;;;;;4913106;29;20036;-73
2021/08/03 17:32:38;;;;;;;4.55;1.98;;;;;;;;;;4897363;29;20368;-74
2021/08/03 17:35:07;;;;;;;4.40;2.58;;;;;;;;;;4897087;29;20437;-73
2021/08/03 17:37:34;;;;;;;6.43;2.25;;;;;;;;;;4913440;29;20032;-78
2021/08/03 17:40:03;;;;;;;5.90;2.17;;;;;;;;;;4913800;29;20043;-78
2021/08/03 17:42:35;;;;;;;4.53;2.30;;;;;;;;;;4913969;29;20036;-77
2021/08/03 17:45:01;;;;;;;8.43;2.08;;;;;;;;;;4913121;29;20024;-78
2021/08/03 17:47:33;;;;;;;7.93;2.28;;;;;;;;;;4913648;29;20039;-78
2021/08/03 17:50:03;;;;;;;2.45;2.00;;;;;;;;;;4914131;29;20028;-78
2021/08/03 17:52:35;;;;;;;4.38;1.90;;;;;;;;;;4897520;29;20028;-76
2021/08/03 17:55:01;;;;;;;2.50;1.92;;;;;;;;;;4913959;29;20020;-77
2021/08/03 17:57:29;;;;;;;3.70;2.00;;;;;;;;;;4912941;29;20040;-78
2021/08/03 17:59:56;;;;;;;3.30;2.00;;;;;;;;;;4914311;29;20039;-80
2021/08/03 18:02:23;;;;;;;3.75;2.10;;;;;;;;;;4913588;29;20028;-79
2021/08/03 18:04:50;;;;;;;5.68;1.98;;;;;;;;;;4915925;29;20055;-79
2021/08/03 18:07:17;;;;;;;5.70;2.33;;;;;;;;;;4916629;29;20028;-79
2021/08/03 18:09:44;;;;;;;6.05;2.38;;;;;;;;;;4913918;29;20484;-78
2021/08/03 18:12:13;;;;;;;4.57;1.77;;;;;;;;;;4915220;29;20036;-80
2021/08/03 18:14:40;;;;;;;6.97;5.18;;;;;;;;;;4921005;29;20020;-77
2021/08/03 18:17:07;;;;;;;4.70;2.90;;;;;;;;;;4922294;29;20488;-77
2021/08/03 18:19:38;;;;;;;7.95;3.13;;;;;;;;;;4921841;29;20043;-79
2021/08/03 18:22:06;;;;;;;4.25;2.30;;;;;;;;;;4916216;29;20103;-76
2021/08/03 18:24:33;;;;;;;8.00;3.17;;;;;;;;;;4913002;29;20067;-77
2021/08/03 18:27:16;;;;;;;11.05;3.78;;;;;;;;;;4897148;29;20062;-77
2021/08/03 18:29:47;;;;;;;5.25;3.17;;;;;;;;;;4913202;29;20065;-77
2021/08/03 18:32:20;;;;;;;8.10;3.05;;;;;;;;;;4897210;29;20040;-77
2021/08/03 18:35:01;;;;;;;5.88;3.17;;;;;;;;;;4912630;29;20036;-77
2021/08/03 18:37:27;;;;;;;7.20;3.60;;;;;;;;;;4912517;29;20032;-77
2021/08/03 18:39:58;;;;;;;6.80;2.70;;;;;;;;;;4913541;29;20079;-75
2021/08/03 18:42:27;;;;;;;7.30;4.60;;;;;;;;;;4913810;29;20028;-75
2021/08/03 18:44:58;;;;;;;7.53;3.70;;;;;;;;;;4913445;29;20263;-76
2021/08/03 18:47:24;;;;;;;7.78;3.13;;;;;;;;;;4912735;29;20032;-75
2021/08/03 18:49:50;;;;;;;5.95;2.63;;;;;;;;;;4912490;29;20087;-76
2021/08/03 18:52:17;;;;;;;7.78;3.22;;;;;;;;;;4912248;29;20055;-75
2021/08/03 18:54:44;;;;;;;4.30;2.80;;;;;;;;;;4913390;29;20032;-75
2021/08/03 18:57:11;;;;;;;6.85;3.60;;;;;;;;;;4913399;29;20064;-74
2021/08/03 18:59:37;;;;;;;6.40;3.15;;;;;;;;;;4913574;29;20043;-75
2021/08/03 19:02:05;;;;;;;7.47;3.72;;;;;;;;;;4911501;29;20028;-74
2021/08/03 19:04:31;;;;;;;3.20;2.42;;;;;;;;;;4913162;29;20048;-73
2021/08/03 19:07:27;;;;;;;5.30;3.05;;;;;;;;;;4913317;29;20452;-74
2021/08/03 19:10:02;;;;;;;3.78;2.20;;;;;;;;;;4913373;29;20482;-74
2021/08/03 19:12:30;;;;;;;7.40;1.50;;;;;;;;;;4913251;29;20032;-74
2021/08/03 19:15:06;;;;;;;4.72;2.40;;;;;;;;;;4913073;29;20035;-74
2021/08/03 19:17:58;;;;;;;2.38;1.88;;;;;;;;;;4912281;29;20060;-74
2021/08/03 19:20:27;;;;;;;4.82;2.13;;;;;;;;;;4894586;29;20146;-74
2021/08/03 19:22:55;;;;;;;2.70;1.92;;;;;;;;;;4914312;29;20058;-73
2021/08/03 19:25:21;;;;;;;4.72;1.90;;;;;;;;;;4912187;29;20020;-74
2021/08/03 19:27:47;;;;;;;3.08;2.30;;;;;;;;;;4912061;29;20163;-73
2021/08/03 19:30:28;;;;;;;3.03;1.33;;;;;;;;;;4911717;29;20024;-74
2021/08/03 19:32:57;;;;;;;3.43;1.60;;;;;;;;;;4911847;29;20544;-74
2021/08/03 19:35:25;;;;;;;1.83;1.20;;;;;;;;;;4911828;29;20024;-74
2021/08/03 19:37:51;;;;;;;2.63;1.13;;;;;;;;;;4911552;29;20047;-73
2021/08/03 19:40:18;;;;;;;4.63;1.58;;;;;;;;;;4911785;29;20636;-73
2021/08/03 19:42:44;;;;;;;2.55;1.10;;;;;;;;;;4912878;29;20028;-73
2021/08/03 19:45:11;;;;;;;4.55;1.30;;;;;;;;;;4912579;29;20356;-74
2021/08/03 19:47:58;;;;;;;2.78;1.73;;;;;;;;;;4911411;29;20055;-74
2021/08/03 19:50:26;;;;;;;6.55;2.67;;;;;;;;;;4912733;29;20058;-76
2021/08/03 19:52:56;;;;;;;3.72;1.65;;;;;;;;;;4912932;29;20020;-75
2021/08/03 19:55:25;;;;;;;3.42;1.67;;;;;;;;;;4911667;29;20055;-75
2021/08/03 19:57:51;;;;;;;5.47;1.55;;;;;;;;;;4911696;29;20424;-73
2021/08/03 20:00:18;;;;;;;3.80;1.73;;;;;;;;;;4911544;29;20306;-74
2021/08/03 20:02:48;;;;;;;3.25;2.30;;;;;;;;;;4913123;29;20472;-75
2021/08/03 20:05:15;;;;;;;5.43;2.15;;;;;;;;;;4895273;29;20079;-74
2021/08/03 20:07:41;;;;;;;5.13;2.13;;;;;;;;;;4911599;29;20043;-74
2021/08/03 20:10:09;;;;;;;7.47;3.70;;;;;;;;;;4912907;29;20083;-75
2021/08/03 20:12:35;;;;;;;2.60;1.83;;;;;;;;;;4912812;29;20036;-75
2021/08/03 20:15:02;;;;;;;3.63;2.08;;;;;;;;;;4912586;29;20019;-75
2021/08/03 20:17:28;;;;;;;3.63;2.38;;;;;;;;;;4912890;29;20036;-74
2021/08/03 20:19:55;;;;;;;4.93;2.60;;;;;;;;;;4912544;29;20040;-73
2021/08/03 20:22:21;;;;;;;4.05;2.22;;;;;;;;;;4912641;29;20038;-74
2021/08/03 20:24:47;;;;;;;2.88;1.90;;;;;;;;;;4911585;29;20028;-74
2021/08/03 20:27:16;;;;;;;7.22;2.60;;;;;;;;;;4912530;29;20040;-73
2021/08/03 20:29:51;;;;;;;4.43;2.38;;;;;;;;;;4911645;29;20028;-74
2021/08/03 20:32:27;;;;;;;4.10;2.15;;;;;;;;;;4913371;29;20344;-74
2021/08/03 20:34:53;;;;;;;5.70;3.42;;;;;;;;;;4916014;29;20079;-74
2021/08/03 20:37:21;;;;;;;6.18;2.00;;;;;;;;;;4914751;29;20039;-75
2021/08/03 20:42:25;;;;;;;2.17;1.60;;;;;;;;;;4916199;29;20036;-73
2021/08/03 20:44:53;;;;;;;5.10;2.03;;;;;;;;;;4916080;29;20075;-73
2021/08/03 20:47:20;;;;;;;2.63;1.63;;;;;;;;;;4914427;29;20025;-74
2021/08/03 20:49:47;;;;;;;3.05;1.88;;;;;;;;;;4915856;29;20032;-74
2021/08/03 20:52:13;;;;;;;4.13;2.50;;;;;;;;;;4915545;29;20059;-74
2021/08/03 20:54:38;;;;;;;1.75;1.60;;;;;;;;;;4915668;29;20024;-72
2021/08/03 20:57:05;;;;;;;4.40;1.58;;;;;;;;;;4916107;29;20059;-74
2021/08/03 20:59:30;;;;;;;6.97;2.70;;;;;;;;;;4914388;29;20095;-73
2021/08/03 21:02:05;;;;;;;5.93;2.28;;;;;;;;;;4915301;29;20040;-74
2021/08/03 21:04:43;;;;;;;4.63;1.63;;;;;;;;;;4915342;29;20145;-74
2021/08/03 21:07:10;;;;;;;3.97;2.08;;;;;;;;;;4913770;29;20032;-73
2021/08/03 21:09:38;;;;;;;4.85;2.13;;;;;;;;;;4898324;29;20488;-74
2021/08/03 21:12:09;;;;;;;3.35;2.20;;;;;;;;;;4915145;29;20024;-75
2021/08/03 21:14:35;;;;;;;3.25;1.98;;;;;;;;;;4915223;29;20464;-75
2021/08/03 21:17:00;;;;;;;5.45;1.77;;;;;;;;;;4915284;29;20500;-75
2021/08/03 21:19:27;;;;;;;3.22;1.80;;;;;;;;;;4915392;29;20040;-74
2021/08/03 21:21:53;;;;;;;4.88;1.58;;;;;;;;;;4915345;29;20063;-74
2021/08/03 21:24:19;;;;;;;3.28;2.28;;;;;;;;;;4914110;29;20070;-74
2021/08/03 21:26:45;;;;;;;1.65;1.42;;;;;;;;;;4915120;29;20047;-74
2021/08/03 21:29:11;;;;;;;5.68;2.50;;;;;;;;;;4898181;29;20369;-73
2021/08/03 21:31:36;;;;;;;4.93;2.20;;;;;;;;;;4915802;29;20060;-73
2021/08/03 21:34:02;;;;;;;3.85;2.50;;;;;;;;;;4913713;29;20437;-72
2021/08/03 21:36:28;;;;;;;1.80;1.55;;;;;;;;;;4915037;29;20111;-73
2021/08/03 21:38:53;;;;;;;2.72;1.70;;;;;;;;;;4915071;29;20664;-73
2021/08/03 21:41:19;;;;;;;6.85;2.05;;;;;;;;;;4914863;29;20111;-73
2021/08/03 21:43:44;;;;;;;3.25;1.75;;;;;;;;;;4915067;29;20051;-74
2021/08/03 21:46:10;;;;;;;4.22;1.77;;;;;;;;;;4914674;29;20043;-73
2021/08/03 21:48:35;;;;;;;3.58;1.85;;;;;;;;;;4914908;29;20508;-73
2021/08/03 21:51:01;;;;;;;4.47;2.25;;;;;;;;;;4913388;29;20032;-74
2021/08/03 21:53:27;;;;;;;4.38;1.95;;;;;;;;;;4914914;29;20039;-74
2021/08/03 21:55:52;;;;;;;6.90;1.75;;;;;;;;;;4914968;29;20059;-74
2021/08/03 21:58:18;;;;;;;5.50;2.03;;;;;;;;;;4913774;29;20114;-73
2021/08/03 22:00:43;;;;;;;2.63;1.38;;;;;;;;;;4915020;29;20038;-74
2021/08/03 22:03:09;;;;;;;5.65;2.25;;;;;;;;;;4897996;29;20513;-74
2021/08/03 22:05:34;;;;;;;6.70;2.03;;;;;;;;;;4915023;29;20044;-74
2021/08/03 22:08:00;;;;;;;2.15;1.77;;;;;;;;;;4913122;29;20149;-73
2021/08/03 22:10:25;;;;;;;4.00;1.92;;;;;;;;;;4897507;29;20040;-74
2021/08/03 22:12:51;;;;;;;2.33;1.50;;;;;;;;;;4914976;29;20036;-74
2021/08/03 22:15:16;;;;;;;3.22;1.98;;;;;;;;;;4914149;29;20032;-74
2021/08/03 22:17:42;;;;;;;3.95;1.70;;;;;;;;;;4897331;29;20147;-75
2021/08/03 22:20:09;;;;;;;6.10;2.10;;;;;;;;;;4912966;29;20032;-74
2021/08/03 22:22:34;;;;;;;2.72;1.75;;;;;;;;;;4913038;29;20095;-74
2021/08/03 22:25:00;;;;;;;2.28;1.50;;;;;;;;;;4914150;29;20032;-74
2021/08/03 22:27:25;;;;;;;3.42;1.73;;;;;;;;;;4912910;29;20291;-73
2021/08/03 22:29:51;;;;;;;2.95;1.80;;;;;;;;;;4914512;29;20039;-73
2021/08/03 22:32:18;;;;;;;4.47;1.98;;;;;;;;;;4912812;29;20040;-73
2021/08/03 22:34:44;;;;;;;6.20;2.47;;;;;;;;;;4912802;29;20064;-73
2021/08/03 22:37:09;;;;;;;5.53;1.98;;;;;;;;;;4913861;29;20040;-74
2021/08/03 22:39:35;;;;;;;3.47;1.75;;;;;;;;;;4914049;29;20378;-74
2021/08/03 22:42:00;;;;;;;2.40;1.67;;;;;;;;;;4913911;29;20440;-74
2021/08/03 22:44:26;;;;;;;5.18;1.65;;;;;;;;;;4913783;29;20123;-74
2021/08/03 22:46:51;;;;;;;4.25;2.08;;;;;;;;;;4912844;29;20036;-74
2021/08/03 22:49:17;;;;;;;3.00;1.90;;;;;;;;;;4912269;29;20035;-74
2021/08/03 22:51:42;;;;;;;3.42;1.30;;;;;;;;;;4913806;29;20290;-74
2021/08/03 22:54:08;;;;;;;3.92;2.03;;;;;;;;;;4913071;29;20024;-73
2021/08/03 22:56:33;;;;;;;3.67;2.42;;;;;;;;;;4913883;29;20396;-73
2021/08/03 22:58:59;;;;;;;4.65;2.08;;;;;;;;;;4913644;29;20103;-73
2021/08/03 23:01:24;;;;;;;5.20;2.20;;;;;;;;;;4912144;29;20496;-73
2021/08/03 23:03:50;;;;;;;1.95;1.48;;;;;;;;;;4912616;29;20028;-73
2021/08/03 23:06:15;;;;;;;2.70;1.58;;;;;;;;;;4912083;29;20141;-74
2021/08/03 23:08:41;;;;;;;2.58;2.17;;;;;;;;;;4912469;29;20546;-76
2021/08/03 23:11:06;;;;;;;2.13;1.90;;;;;;;;;;4912160;29;20036;-77
2021/08/03 23:13:32;;;;;;;5.13;1.52;;;;;;;;;;4896580;29;20127;-77
2021/08/03 23:15:57;;;;;;;4.32;2.05;;;;;;;;;;4896741;29;20084;-77
2021/08/03 23:18:23;;;;;;;5.18;2.03;;;;;;;;;;4913550;29;20036;-75
2021/08/03 23:20:48;;;;;;;2.30;1.60;;;;;;;;;;4913727;29;20084;-73
2021/08/03 23:23:14;;;;;;;6.55;1.88;;;;;;;;;;4913291;29;20519;-74
2021/08/03 23:25:39;;;;;;;1.88;1.42;;;;;;;;;;4896484;29;20080;-74
2021/08/03 23:28:05;;;;;;;2.55;1.60;;;;;;;;;;4913174;29;20032;-73
2021/08/03 23:30:31;;;;;;;4.90;2.25;;;;;;;;;;4913696;29;20047;-73
2021/08/03 23:32:56;;;;;;;7.05;3.20;;;;;;;;;;4914129;29;20059;-73
2021/08/03 23:35:22;;;;;;;3.08;1.88;;;;;;;;;;4913217;29;20036;-74
2021/08/03 23:37:47;;;;;;;2.45;2.00;;;;;;;;;;4911900;29;20088;-73
2021/08/03 23:40:13;;;;;;;6.05;1.92;;;;;;;;;;4912986;29;20047;-74
2021/08/03 23:42:39;;;;;;;4.55;1.85;;;;;;;;;;4896243;29;20457;-73
2021/08/03 23:45:05;;;;;;;3.42;1.90;;;;;;;;;;4913512;29;20084;-72
2021/08/03 23:47:30;;;;;;;2.85;2.28;;;;;;;;;;4896460;29;20504;-74
2021/08/03 23:49:56;;;;;;;1.90;1.58;;;;;;;;;;4913181;29;20043;-73
2021/08/03 23:52:21;;;;;;;6.05;2.17;;;;;;;;;;4913050;29;20039;-73
2021/08/03 23:54:47;;;;;;;2.65;1.85;;;;;;;;;;4911853;29;20550;-72
2021/08/03 23:57:12;;;;;;;2.97;1.98;;;;;;;;;;4912941;29;20043;-72
2021/08/03 23:59:38;;;;;;;2.85;2.03;;;;;;;;;;4913996;29;20087;-75
